sensor_id;sensor_type;location;lat;lon;timestamp;pressure;altitude;pressure_sealevel;temperature;humidity
72024;BME280;59889;50.700;5.440;2023-03-22T00:01:29;99537.09;;;21.03;35.58
72024;BME280;59889;50.700;5.440;2023-03-22T00:03:53;99524.59;;;21.25;35.27
72024;BME280;59889;50.700;5.440;2023-03-22T00:06:19;99522.58;;;21.18;35.34
72024;BME280;59889;50.700;5.440;2023-03-22T00:08:47;99519.22;;;21.18;35.33
72024;BME280;59889;50.700;5.440;2023-03-22T00:11:10;99521.88;;;21.36;35.43
72024;BME280;59889;50.700;5.440;2023-03-22T00:13:35;99524.49;;;20.80;35.54
72024;BME280;59889;50.700;5.440;2023-03-22T00:15:59;99521.35;;;21.07;35.44
72024;BME280;59889;50.700;5.440;2023-03-22T00:18:25;99521.60;;;20.93;35.71
72024;BME280;59889;50.700;5.440;2023-03-22T00:20:50;99515.62;;;21.41;35.08
72024;BME280;59889;50.700;5.440;2023-03-22T00:23:14;99517.31;;;21.23;35.27
72024;BME280;59889;50.700;5.440;2023-03-22T00:25:39;99519.46;;;21.18;35.03
72024;BME280;59889;50.700;5.440;2023-03-22T00:28:04;99515.05;;;21.20;35.34
72024;BME280;59889;50.700;5.440;2023-03-22T00:30:30;99518.76;;;21.44;35.01
72024;BME280;59889;50.700;5.440;2023-03-22T00:32:54;99518.27;;;20.84;35.74
72024;BME280;59889;50.700;5.440;2023-03-22T00:35:19;99512.88;;;21.10;35.47
72024;BME280;59889;50.700;5.440;2023-03-22T00:37:45;99512.80;;;21.62;35.08
72024;BME280;59889;50.700;5.440;2023-03-22T00:40:12;99509.73;;;21.40;35.08
72024;BME280;59889;50.700;5.440;2023-03-22T00:42:35;99505.69;;;21.31;35.16
72024;BME280;59889;50.700;5.440;2023-03-22T00:45:00;99503.83;;;21.68;34.76
72024;BME280;59889;50.700;5.440;2023-03-22T00:47:25;99501.66;;;21.33;35.15
72024;BME280;59889;50.700;5.440;2023-03-22T00:49:50;99500.26;;;21.36;35.12
72024;BME280;59889;50.700;5.440;2023-03-22T00:52:15;99496.28;;;21.19;35.02
72024;BME280;59889;50.700;5.440;2023-03-22T00:54:40;99494.69;;;21.52;34.93
72024;BME280;59889;50.700;5.440;2023-03-22T00:57:05;99490.29;;;21.42;35.04
72024;BME280;59889;50.700;5.440;2023-03-22T00:59:30;99485.30;;;21.59;34.82
72024;BME280;59889;50.700;5.440;2023-03-22T01:01:55;99483.88;;;21.22;34.99
72024;BME280;59889;50.700;5.440;2023-03-22T01:04:20;99481.10;;;21.32;35.15
72024;BME280;59889;50.700;5.440;2023-03-22T01:06:45;99478.26;;;21.31;35.19
72024;BME280;59889;50.700;5.440;2023-03-22T01:09:10;99476.65;;;21.39;35.12
72024;BME280;59889;50.700;5.440;2023-03-22T01:11:35;99470.81;;;21.41;34.76
72024;BME280;59889;50.700;5.440;2023-03-22T01:14:01;99469.63;;;21.55;34.84
72024;BME280;59889;50.700;5.440;2023-03-22T01:16:26;99470.90;;;21.64;34.76
72024;BME280;59889;50.700;5.440;2023-03-22T01:18:51;99463.26;;;21.62;34.78
72024;BME280;59889;50.700;5.440;2023-03-22T01:21:16;99459.29;;;21.46;35.00
72024;BME280;59889;50.700;5.440;2023-03-22T01:23:41;99456.43;;;21.72;34.94
72024;BME280;59889;50.700;5.440;2023-03-22T01:26:06;99455.58;;;21.63;34.77
72024;BME280;59889;50.700;5.440;2023-03-22T01:28:31;99454.14;;;21.70;34.68
72024;BME280;59889;50.700;5.440;2023-03-22T01:31:00;99447.73;;;21.48;34.66
72024;BME280;59889;50.700;5.440;2023-03-22T01:33:21;99444.87;;;21.69;34.71
72024;BME280;59889;50.700;5.440;2023-03-22T01:35:46;99442.53;;;21.71;34.67
72024;BME280;59889;50.700;5.440;2023-03-22T01:38:11;99439.39;;;21.59;34.79
72024;BME280;59889;50.700;5.440;2023-03-22T01:40:37;99430.91;;;21.68;34.72
72024;BME280;59889;50.700;5.440;2023-03-22T01:43:02;99425.28;;;21.97;34.63
72024;BME280;59889;50.700;5.440;2023-03-22T01:45:35;99424.25;;;21.48;34.68
72024;BME280;59889;50.700;5.440;2023-03-22T01:47:55;99420.66;;;21.67;34.72
72024;BME280;59889;50.700;5.440;2023-03-22T01:50:18;99418.72;;;21.98;34.63
72024;BME280;59889;50.700;5.440;2023-03-22T01:52:43;99413.96;;;21.36;34.81
72024;BME280;59889;50.700;5.440;2023-03-22T01:55:07;99411.72;;;21.55;34.59
72024;BME280;59889;50.700;5.440;2023-03-22T01:57:32;99405.15;;;21.57;34.86
72024;BME280;59889;50.700;5.440;2023-03-22T01:59:57;99401.27;;;21.87;34.78
72024;BME280;59889;50.700;5.440;2023-03-22T02:02:22;99398.98;;;21.66;34.72
72024;BME280;59889;50.700;5.440;2023-03-22T02:04:47;99391.96;;;21.41;34.76
72024;BME280;59889;50.700;5.440;2023-03-22T02:07:14;99391.25;;;21.55;34.84
72024;BME280;59889;50.700;5.440;2023-03-22T02:09:38;99387.72;;;21.64;34.79
72024;BME280;59889;50.700;5.440;2023-03-22T02:12:10;99384.95;;;21.60;34.82
72024;BME280;59889;50.700;5.440;2023-03-22T02:14:42;99385.57;;;21.67;34.73
72024;BME280;59889;50.700;5.440;2023-03-22T02:17:06;99387.25;;;21.65;34.76
72024;BME280;59889;50.700;5.440;2023-03-22T02:19:33;99386.78;;;21.64;34.75
72024;BME280;59889;50.700;5.440;2023-03-22T02:24:28;99385.70;;;21.39;34.79
72024;BME280;59889;50.700;5.440;2023-03-22T02:29:03;99383.87;;;21.64;34.79
72024;BME280;59889;50.700;5.440;2023-03-22T02:31:38;99379.63;;;21.61;34.81
72024;BME280;59889;50.700;5.440;2023-03-22T02:34:02;99380.14;;;21.96;34.35
72024;BME280;59889;50.700;5.440;2023-03-22T02:36:30;99379.81;;;21.73;34.63
72024;BME280;59889;50.700;5.440;2023-03-22T02:38:50;99378.40;;;21.41;34.77
72024;BME280;59889;50.700;5.440;2023-03-22T02:41:09;99379.27;;;21.62;34.79
72024;BME280;59889;50.700;5.440;2023-03-22T02:43:33;99376.64;;;21.68;34.70
72024;BME280;59889;50.700;5.440;2023-03-22T02:45:56;99379.42;;;21.61;34.49
72024;BME280;59889;50.700;5.440;2023-03-22T02:48:24;99379.99;;;22.10;34.47
72024;BME280;59889;50.700;5.440;2023-03-22T02:50:48;99373.62;;;21.69;34.71
72024;BME280;59889;50.700;5.440;2023-03-22T02:53:15;99369.67;;;21.66;34.72
72024;BME280;59889;50.700;5.440;2023-03-22T02:55:37;99372.10;;;21.42;34.76
72024;BME280;59889;50.700;5.440;2023-03-22T02:58:06;99367.63;;;21.74;34.62
72024;BME280;59889;50.700;5.440;2023-03-22T03:00:25;99365.93;;;21.60;34.82
72024;BME280;59889;50.700;5.440;2023-03-22T03:02:51;99360.73;;;21.74;34.65
72024;BME280;59889;50.700;5.440;2023-03-22T03:05:16;99363.20;;;21.40;35.13
72024;BME280;59889;50.700;5.440;2023-03-22T03:07:41;99360.10;;;21.95;34.70
72024;BME280;59889;50.700;5.440;2023-03-22T03:10:06;99358.33;;;21.24;35.31
72024;BME280;59889;50.700;5.440;2023-03-22T03:12:30;99358.41;;;21.42;35.12
72024;BME280;59889;50.700;5.440;2023-03-22T03:14:55;99359.97;;;21.53;34.98
72024;BME280;59889;50.700;5.440;2023-03-22T03:17:28;99363.98;;;21.34;35.24
72024;BME280;59889;50.700;5.440;2023-03-22T03:19:52;99363.54;;;21.73;35.02
72024;BME280;59889;50.700;5.440;2023-03-22T03:22:23;99362.70;;;21.43;35.14
72024;BME280;59889;50.700;5.440;2023-03-22T03:24:38;99362.55;;;21.34;35.23
72024;BME280;59889;50.700;5.440;2023-03-22T03:27:04;99357.74;;;21.40;35.18
72024;BME280;59889;50.700;5.440;2023-03-22T03:29:31;99358.90;;;21.63;35.17
72024;BME280;59889;50.700;5.440;2023-03-22T03:31:55;99355.69;;;21.38;35.51
72024;BME280;59889;50.700;5.440;2023-03-22T03:34:17;99349.56;;;21.34;35.56
72024;BME280;59889;50.700;5.440;2023-03-22T03:36:45;99340.14;;;21.28;35.34
72024;BME280;59889;50.700;5.440;2023-03-22T03:39:09;99332.73;;;21.38;35.19
72024;BME280;59889;50.700;5.440;2023-03-22T03:41:31;99332.41;;;21.48;35.08
72024;BME280;59889;50.700;5.440;2023-03-22T03:43:56;99328.64;;;21.13;35.52
72024;BME280;59889;50.700;5.440;2023-03-22T03:46:21;99327.25;;;21.31;35.27
72024;BME280;59889;50.700;5.440;2023-03-22T03:48:47;99321.42;;;21.21;35.42
72024;BME280;59889;50.700;5.440;2023-03-22T03:51:11;99323.17;;;21.35;35.54
72024;BME280;59889;50.700;5.440;2023-03-22T03:53:36;99321.09;;;21.43;35.46
72024;BME280;59889;50.700;5.440;2023-03-22T03:56:01;99325.83;;;21.19;35.12
72024;BME280;59889;50.700;5.440;2023-03-22T03:58:26;99326.63;;;21.42;35.44
72024;BME280;59889;50.700;5.440;2023-03-22T04:00:51;99325.09;;;21.27;35.34
72024;BME280;59889;50.700;5.440;2023-03-22T04:03:16;99323.80;;;21.49;35.08
72024;BME280;59889;50.700;5.440;2023-03-22T04:05:42;99319.35;;;21.27;35.31
72024;BME280;59889;50.700;5.440;2023-03-22T04:08:07;99319.84;;;21.38;35.23
72024;BME280;59889;50.700;5.440;2023-03-22T04:10:31;99318.82;;;21.50;35.34
72024;BME280;59889;50.700;5.440;2023-03-22T04:12:56;99320.58;;;21.50;35.06
72024;BME280;59889;50.700;5.440;2023-03-22T04:15:22;99324.40;;;21.45;35.11
72024;BME280;59889;50.700;5.440;2023-03-22T04:17:47;99324.65;;;20.99;35.35
72024;BME280;59889;50.700;5.440;2023-03-22T04:20:12;99321.44;;;21.33;35.24
72024;BME280;59889;50.700;5.440;2023-03-22T04:22:37;99321.94;;;21.38;35.20
72024;BME280;59889;50.700;5.440;2023-03-22T04:25:02;99324.97;;;21.85;34.86
72024;BME280;59889;50.700;5.440;2023-03-22T04:27:27;99325.09;;;21.58;34.95
72024;BME280;59889;50.700;5.440;2023-03-22T04:29:52;99318.82;;;21.24;35.35
72024;BME280;59889;50.700;5.440;2023-03-22T04:32:17;99320.51;;;21.45;35.08
72024;BME280;59889;50.700;5.440;2023-03-22T04:34:42;99319.58;;;21.50;34.99
72024;BME280;59889;50.700;5.440;2023-03-22T04:37:07;99320.76;;;21.52;34.99
72024;BME280;59889;50.700;5.440;2023-03-22T04:39:32;99320.91;;;21.54;34.99
72024;BME280;59889;50.700;5.440;2023-03-22T04:41:57;99321.82;;;21.24;35.03
72024;BME280;59889;50.700;5.440;2023-03-22T04:44:22;99324.06;;;21.51;34.99
72024;BME280;59889;50.700;5.440;2023-03-22T04:46:47;99325.46;;;21.81;34.91
72024;BME280;59889;50.700;5.440;2023-03-22T04:49:12;99328.02;;;21.83;34.86
72024;BME280;59889;50.700;5.440;2023-03-22T04:51:37;99328.77;;;21.79;34.93
72024;BME280;59889;50.700;5.440;2023-03-22T04:54:03;99327.55;;;21.63;34.82
72024;BME280;59889;50.700;5.440;2023-03-22T04:56:28;99325.66;;;21.78;34.92
72024;BME280;59889;50.700;5.440;2023-03-22T04:58:53;99320.13;;;21.52;34.94
72024;BME280;59889;50.700;5.440;2023-03-22T05:01:18;99312.80;;;21.79;34.91
72024;BME280;59889;50.700;5.440;2023-03-22T05:03:44;99307.78;;;21.59;34.86
72024;BME280;59889;50.700;5.440;2023-03-22T05:06:08;99306.06;;;21.53;34.94
72024;BME280;59889;50.700;5.440;2023-03-22T05:08:33;99304.27;;;21.34;35.16
72024;BME280;59889;50.700;5.440;2023-03-22T05:11:04;99304.07;;;21.56;34.88
72024;BME280;59889;50.700;5.440;2023-03-22T05:13:25;99305.92;;;21.45;35.02
72024;BME280;59889;50.700;5.440;2023-03-22T05:15:48;99305.59;;;21.56;34.87
72024;BME280;59889;50.700;5.440;2023-03-22T05:18:13;99312.04;;;21.78;34.90
72024;BME280;59889;50.700;5.440;2023-03-22T05:20:38;99313.71;;;21.42;35.02
72024;BME280;59889;50.700;5.440;2023-03-22T05:23:03;99308.95;;;21.89;34.75
72024;BME280;59889;50.700;5.440;2023-03-22T05:25:28;99310.08;;;21.67;34.69
72024;BME280;59889;50.700;5.440;2023-03-22T05:27:54;99309.18;;;21.62;34.76
72024;BME280;59889;50.700;5.440;2023-03-22T05:30:19;99313.84;;;21.59;34.81
72024;BME280;59889;50.700;5.440;2023-03-22T05:32:44;99316.93;;;21.85;34.76
72024;BME280;59889;50.700;5.440;2023-03-22T05:35:09;99313.35;;;21.54;34.88
72024;BME280;59889;50.700;5.440;2023-03-22T05:37:34;99319.25;;;21.57;34.82
72024;BME280;59889;50.700;5.440;2023-03-22T05:39:59;99317.74;;;21.74;34.92
72024;BME280;59889;50.700;5.440;2023-03-22T05:42:24;99327.56;;;21.73;34.91
72024;BME280;59889;50.700;5.440;2023-03-22T05:44:49;99329.58;;;21.37;35.11
72024;BME280;59889;50.700;5.440;2023-03-22T05:47:14;99326.35;;;21.29;35.17
72024;BME280;59889;50.700;5.440;2023-03-22T05:49:39;99322.95;;;21.20;35.02
72024;BME280;59889;50.700;5.440;2023-03-22T05:52:04;99327.88;;;21.46;35.27
72024;BME280;59889;50.700;5.440;2023-03-22T05:54:29;99330.10;;;21.60;34.89
72024;BME280;59889;50.700;5.440;2023-03-22T05:56:54;99326.49;;;21.49;34.84
72024;BME280;59889;50.700;5.440;2023-03-22T05:59:19;99330.73;;;21.64;34.81
72024;BME280;59889;50.700;5.440;2023-03-22T06:01:45;99325.05;;;21.28;34.85
72024;BME280;59889;50.700;5.440;2023-03-22T06:04:10;99329.47;;;21.41;34.78
72024;BME280;59889;50.700;5.440;2023-03-22T06:06:35;99324.33;;;21.51;34.52
72024;BME280;59889;50.700;5.440;2023-03-22T06:09:00;99319.21;;;21.31;34.43
72024;BME280;59889;50.700;5.440;2023-03-22T06:11:25;99331.91;;;21.17;34.45
72024;BME280;59889;50.700;5.440;2023-03-22T06:13:50;99333.13;;;21.34;34.48
72024;BME280;59889;50.700;5.440;2023-03-22T06:16:15;99330.19;;;20.75;34.51
72024;BME280;59889;50.700;5.440;2023-03-22T06:18:40;99333.14;;;21.37;34.27
72024;BME280;59889;50.700;5.440;2023-03-22T06:21:05;99332.16;;;21.37;34.12
72024;BME280;59889;50.700;5.440;2023-03-22T06:23:31;99338.17;;;21.31;34.15
72024;BME280;59889;50.700;5.440;2023-03-22T06:25:55;99333.06;;;21.38;33.90
72024;BME280;59889;50.700;5.440;2023-03-22T06:28:21;99335.27;;;21.20;34.01
72024;BME280;59889;50.700;5.440;2023-03-22T06:30:46;99338.15;;;21.37;33.82
72024;BME280;59889;50.700;5.440;2023-03-22T06:33:11;99336.63;;;21.11;33.82
72024;BME280;59889;50.700;5.440;2023-03-22T06:35:36;99336.72;;;21.42;33.83
72024;BME280;59889;50.700;5.440;2023-03-22T06:38:01;99341.06;;;21.36;33.83
72024;BME280;59889;50.700;5.440;2023-03-22T06:40:26;99338.81;;;21.05;33.85
72024;BME280;59889;50.700;5.440;2023-03-22T06:42:51;99339.52;;;21.17;34.08
72024;BME280;59889;50.700;5.440;2023-03-22T06:45:16;99339.83;;;21.24;34.24
72024;BME280;59889;50.700;5.440;2023-03-22T06:47:41;99342.85;;;21.29;34.09
72024;BME280;59889;50.700;5.440;2023-03-22T06:50:07;99342.62;;;21.38;33.81
72024;BME280;59889;50.700;5.440;2023-03-22T06:52:31;99342.88;;;21.35;33.65
72024;BME280;59889;50.700;5.440;2023-03-22T06:54:56;99341.42;;;21.30;33.68
72024;BME280;59889;50.700;5.440;2023-03-22T06:57:22;99346.46;;;21.29;33.65
72024;BME280;59889;50.700;5.440;2023-03-22T06:59:47;99350.78;;;21.29;33.99
72024;BME280;59889;50.700;5.440;2023-03-22T07:02:12;99350.13;;;21.31;34.21
72024;BME280;59889;50.700;5.440;2023-03-22T07:04:37;99349.97;;;20.99;34.43
72024;BME280;59889;50.700;5.440;2023-03-22T07:07:02;99345.71;;;21.37;34.58
72024;BME280;59889;50.700;5.440;2023-03-22T07:09:28;99352.57;;;21.11;34.39
72024;BME280;59889;50.700;5.440;2023-03-22T07:11:53;99351.50;;;21.15;34.67
72024;BME280;59889;50.700;5.440;2023-03-22T07:14:18;99349.63;;;21.26;34.56
72024;BME280;59889;50.700;5.440;2023-03-22T07:16:43;99345.85;;;21.49;34.62
72024;BME280;59889;50.700;5.440;2023-03-22T07:19:08;99348.93;;;20.98;34.98
72024;BME280;59889;50.700;5.440;2023-03-22T07:21:34;99351.81;;;21.24;34.75
72024;BME280;59889;50.700;5.440;2023-03-22T07:23:59;99357.83;;;21.38;34.55
72024;BME280;59889;50.700;5.440;2023-03-22T07:26:24;99356.28;;;21.17;34.84
72024;BME280;59889;50.700;5.440;2023-03-22T07:28:49;99357.65;;;21.27;34.70
72024;BME280;59889;50.700;5.440;2023-03-22T07:31:14;99358.35;;;21.28;34.73
72024;BME280;59889;50.700;5.440;2023-03-22T07:33:39;99352.44;;;21.27;34.74
72024;BME280;59889;50.700;5.440;2023-03-22T07:36:06;99358.52;;;21.15;34.91
72024;BME280;59889;50.700;5.440;2023-03-22T07:38:29;99354.07;;;20.95;35.20
72024;BME280;59889;50.700;5.440;2023-03-22T07:40:54;99357.54;;;20.94;34.94
72024;BME280;59889;50.700;5.440;2023-03-22T07:43:19;99355.50;;;21.10;35.09
72024;BME280;59889;50.700;5.440;2023-03-22T07:45:45;99358.36;;;21.32;34.78
72024;BME280;59889;50.700;5.440;2023-03-22T07:48:10;99356.25;;;21.19;34.98
72024;BME280;59889;50.700;5.440;2023-03-22T07:50:35;99360.81;;;20.66;35.30
72024;BME280;59889;50.700;5.440;2023-03-22T07:53:00;99361.41;;;21.30;34.79
72024;BME280;59889;50.700;5.440;2023-03-22T07:55:25;99364.50;;;21.26;34.85
72024;BME280;59889;50.700;5.440;2023-03-22T07:57:50;99369.21;;;21.13;34.80
72024;BME280;59889;50.700;5.440;2023-03-22T08:00:16;99369.18;;;21.29;34.90
72024;BME280;59889;50.700;5.440;2023-03-22T08:02:40;99371.70;;;21.26;35.01
72024;BME280;59889;50.700;5.440;2023-03-22T08:05:06;99366.53;;;21.23;35.09
72024;BME280;59889;50.700;5.440;2023-03-22T08:07:31;99366.39;;;21.35;34.99
72024;BME280;59889;50.700;5.440;2023-03-22T08:09:56;99370.71;;;21.26;35.19
72024;BME280;59889;50.700;5.440;2023-03-22T08:12:20;99367.54;;;21.13;35.33
72024;BME280;59889;50.700;5.440;2023-03-22T08:14:46;99363.16;;;21.06;35.49
72024;BME280;59889;50.700;5.440;2023-03-22T08:17:11;99359.97;;;21.12;35.11
72024;BME280;59889;50.700;5.440;2023-03-22T08:19:36;99361.31;;;21.49;34.92
72024;BME280;59889;50.700;5.440;2023-03-22T08:22:01;99355.70;;;21.53;34.88
72024;BME280;59889;50.700;5.440;2023-03-22T08:24:26;99356.10;;;21.57;34.81
72024;BME280;59889;50.700;5.440;2023-03-22T08:26:52;99351.51;;;21.47;34.89
72024;BME280;59889;50.700;5.440;2023-03-22T08:29:17;99353.32;;;21.38;35.02
72024;BME280;59889;50.700;5.440;2023-03-22T08:31:42;99352.61;;;21.33;35.15
72024;BME280;59889;50.700;5.440;2023-03-22T08:34:07;99354.00;;;21.20;35.01
72024;BME280;59889;50.700;5.440;2023-03-22T08:36:32;99357.07;;;21.30;34.93
72024;BME280;59889;50.700;5.440;2023-03-22T08:38:57;99354.61;;;21.33;34.88
72024;BME280;59889;50.700;5.440;2023-03-22T08:41:22;99352.61;;;21.25;35.00
72024;BME280;59889;50.700;5.440;2023-03-22T08:43:47;99355.56;;;21.46;35.07
72024;BME280;59889;50.700;5.440;2023-03-22T08:46:12;99356.16;;;21.41;34.86
72024;BME280;59889;50.700;5.440;2023-03-22T08:48:37;99354.89;;;21.54;34.99
72024;BME280;59889;50.700;5.440;2023-03-22T08:51:03;99350.43;;;21.60;34.99
72024;BME280;59889;50.700;5.440;2023-03-22T08:53:27;99354.77;;;21.62;34.93
72024;BME280;59889;50.700;5.440;2023-03-22T08:55:53;99355.17;;;21.48;35.11
72024;BME280;59889;50.700;5.440;2023-03-22T08:58:18;99346.40;;;21.60;35.01
72024;BME280;59889;50.700;5.440;2023-03-22T09:00:43;99340.91;;;21.32;35.04
72024;BME280;59889;50.700;5.440;2023-03-22T09:03:08;99334.22;;;21.29;35.09
72024;BME280;59889;50.700;5.440;2023-03-22T09:05:33;99341.73;;;21.51;34.82
72024;BME280;59889;50.700;5.440;2023-03-22T09:07:58;99343.23;;;21.36;35.01
72024;BME280;59889;50.700;5.440;2023-03-22T09:10:23;99340.72;;;21.72;34.82
72024;BME280;59889;50.700;5.440;2023-03-22T09:12:48;99340.45;;;21.32;35.03
72024;BME280;59889;50.700;5.440;2023-03-22T09:15:13;99339.33;;;21.29;35.03
72024;BME280;59889;50.700;5.440;2023-03-22T09:17:38;99344.03;;;21.71;34.81
72024;BME280;59889;50.700;5.440;2023-03-22T09:20:04;99340.80;;;21.47;35.07
72024;BME280;59889;50.700;5.440;2023-03-22T09:22:29;99342.64;;;21.30;35.01
72024;BME280;59889;50.700;5.440;2023-03-22T09:24:53;99337.67;;;21.08;35.01
72024;BME280;59889;50.700;5.440;2023-03-22T09:27:19;99339.09;;;21.28;35.05
72024;BME280;59889;50.700;5.440;2023-03-22T09:29:44;99339.38;;;21.41;34.91
72024;BME280;59889;50.700;5.440;2023-03-22T09:32:09;99335.69;;;21.51;35.07
72024;BME280;59889;50.700;5.440;2023-03-22T09:34:34;99338.51;;;21.31;35.01
72024;BME280;59889;50.700;5.440;2023-03-22T09:36:59;99334.56;;;21.57;34.97
72024;BME280;59889;50.700;5.440;2023-03-22T09:39:24;99332.96;;;21.38;35.21
72024;BME280;59889;50.700;5.440;2023-03-22T09:41:52;99329.17;;;21.43;34.85
72024;BME280;59889;50.700;5.440;2023-03-22T09:44:19;99326.96;;;21.44;34.83
72024;BME280;59889;50.700;5.440;2023-03-22T09:46:41;99331.50;;;21.65;34.89
72024;BME280;59889;50.700;5.440;2023-03-22T09:49:09;99335.37;;;21.46;34.83
72024;BME280;59889;50.700;5.440;2023-03-22T09:51:36;99336.92;;;21.44;35.12
72024;BME280;59889;50.700;5.440;2023-03-22T09:53:54;99341.21;;;21.57;34.97
72024;BME280;59889;50.700;5.440;2023-03-22T09:56:22;99335.81;;;21.38;34.92
72024;BME280;59889;50.700;5.440;2023-03-22T09:58:51;99329.50;;;21.57;34.98
72024;BME280;59889;50.700;5.440;2023-03-22T10:01:14;99328.48;;;21.61;34.97
72024;BME280;59889;50.700;5.440;2023-03-22T10:06:01;99315.76;;;21.58;35.24
72024;BME280;59889;50.700;5.440;2023-03-22T10:08:34;99308.83;;;21.38;35.19
72024;BME280;59889;50.700;5.440;2023-03-22T10:10:51;99304.25;;;21.32;35.25
72024;BME280;59889;50.700;5.440;2023-03-22T10:13:19;99300.26;;;21.12;35.51
72024;BME280;59889;50.700;5.440;2023-03-22T10:15:44;99299.74;;;21.57;35.19
72024;BME280;59889;50.700;5.440;2023-03-22T10:18:07;99304.37;;;21.03;35.26
72024;BME280;59889;50.700;5.440;2023-03-22T10:20:36;99304.63;;;21.58;35.18
72024;BME280;59889;50.700;5.440;2023-03-22T10:22:58;99302.45;;;21.50;35.25
72024;BME280;59889;50.700;5.440;2023-03-22T10:25:30;99301.81;;;21.56;35.14
72024;BME280;59889;50.700;5.440;2023-03-22T10:27:48;99300.41;;;21.59;35.12
72024;BME280;59889;50.700;5.440;2023-03-22T10:30:19;99299.29;;;21.57;35.13
72024;BME280;59889;50.700;5.440;2023-03-22T10:32:41;99299.97;;;20.96;35.59
72024;BME280;59889;50.700;5.440;2023-03-22T10:35:01;99298.83;;;21.57;35.13
72024;BME280;59889;50.700;5.440;2023-03-22T10:37:29;99300.76;;;21.54;35.14
72024;BME280;59889;50.700;5.440;2023-03-22T10:39:53;99292.65;;;21.52;35.16
72024;BME280;59889;50.700;5.440;2023-03-22T10:42:19;99290.65;;;21.11;35.38
72024;BME280;59889;50.700;5.440;2023-03-22T10:44:45;99293.12;;;21.27;35.19
72024;BME280;59889;50.700;5.440;2023-03-22T10:47:07;99294.57;;;21.27;35.17
72024;BME280;59889;50.700;5.440;2023-03-22T10:49:35;99292.67;;;20.80;35.48
72024;BME280;59889;50.700;5.440;2023-03-22T10:52:01;99296.02;;;21.05;35.09
72024;BME280;59889;50.700;5.440;2023-03-22T10:54:23;99297.87;;;21.40;35.00
72024;BME280;59889;50.700;5.440;2023-03-22T10:56:47;99295.73;;;21.53;35.12
72024;BME280;59889;50.700;5.440;2023-03-22T11:01:43;99297.83;;;21.38;34.94
72024;BME280;59889;50.700;5.440;2023-03-22T11:04:06;99293.83;;;21.48;35.11
72024;BME280;59889;50.700;5.440;2023-03-22T11:06:29;99296.06;;;21.20;35.14
72024;BME280;59889;50.700;5.440;2023-03-22T11:08:53;99291.92;;;21.48;35.08
72024;BME280;59889;50.700;5.440;2023-03-22T11:11:20;99283.95;;;21.59;34.97
72024;BME280;59889;50.700;5.440;2023-03-22T11:13:42;99284.78;;;21.27;35.05
72024;BME280;59889;50.700;5.440;2023-03-22T11:16:07;99274.39;;;21.31;34.99
72024;BME280;59889;50.700;5.440;2023-03-22T11:18:33;99276.57;;;21.32;34.96
72024;BME280;59889;50.700;5.440;2023-03-22T11:20:59;99270.43;;;21.55;34.97
72024;BME280;59889;50.700;5.440;2023-03-22T11:23:23;99272.90;;;21.38;35.18
72024;BME280;59889;50.700;5.440;2023-03-22T11:25:48;99268.78;;;21.33;34.98
72024;BME280;59889;50.700;5.440;2023-03-22T11:28:17;99269.98;;;21.33;34.98
72024;BME280;59889;50.700;5.440;2023-03-22T11:30:37;99272.18;;;21.63;34.89
72024;BME280;59889;50.700;5.440;2023-03-22T11:35:29;99268.66;;;21.64;34.87
72024;BME280;59889;50.700;5.440;2023-03-22T11:37:54;99272.64;;;21.29;35.28
72024;BME280;59889;50.700;5.440;2023-03-22T11:40:20;99270.43;;;21.23;35.08
72024;BME280;59889;50.700;5.440;2023-03-22T11:42:43;99267.48;;;21.17;34.84
72024;BME280;59889;50.700;5.440;2023-03-22T11:45:14;99267.22;;;21.25;35.02
72024;BME280;59889;50.700;5.440;2023-03-22T11:47:36;99266.73;;;21.55;34.92
72024;BME280;59889;50.700;5.440;2023-03-22T11:50:03;99268.59;;;21.54;34.94
72024;BME280;59889;50.700;5.440;2023-03-22T11:52:25;99259.86;;;21.39;35.12
72024;BME280;59889;50.700;5.440;2023-03-22T11:54:49;99263.22;;;21.50;35.01
72024;BME280;59889;50.700;5.440;2023-03-22T11:57:15;99260.76;;;21.36;35.23
72024;BME280;59889;50.700;5.440;2023-03-22T11:59:45;99267.16;;;21.58;34.97
72024;BME280;59889;50.700;5.440;2023-03-22T12:02:12;99261.09;;;21.28;34.99
72024;BME280;59889;50.700;5.440;2023-03-22T12:04:33;99256.57;;;21.59;34.93
72024;BME280;59889;50.700;5.440;2023-03-22T12:06:57;99246.55;;;21.43;35.15
72024;BME280;59889;50.700;5.440;2023-03-22T12:09:24;99246.21;;;21.31;35.01
72024;BME280;59889;50.700;5.440;2023-03-22T12:11:46;99245.95;;;21.55;34.98
72024;BME280;59889;50.700;5.440;2023-03-22T12:14:15;99243.53;;;21.37;34.95
72024;BME280;59889;50.700;5.440;2023-03-22T12:16:42;99248.82;;;21.24;35.12
72024;BME280;59889;50.700;5.440;2023-03-22T12:19:04;99248.31;;;21.66;34.91
72024;BME280;59889;50.700;5.440;2023-03-22T12:21:24;99244.68;;;21.67;34.91
72024;BME280;59889;50.700;5.440;2023-03-22T12:23:49;99239.54;;;21.31;35.05
72024;BME280;59889;50.700;5.440;2023-03-22T12:26:17;99245.25;;;21.35;35.01
72024;BME280;59889;50.700;5.440;2023-03-22T12:28:52;99244.93;;;21.52;34.78
72024;BME280;59889;50.700;5.440;2023-03-22T12:31:05;99238.70;;;21.36;35.00
72024;BME280;59889;50.700;5.440;2023-03-22T12:33:33;99233.12;;;21.39;34.94
72024;BME280;59889;50.700;5.440;2023-03-22T12:35:56;99239.93;;;21.41;34.93
72024;BME280;59889;50.700;5.440;2023-03-22T12:38:26;99235.54;;;21.34;35.28
72024;BME280;59889;50.700;5.440;2023-03-22T12:40:45;99239.32;;;21.37;34.96
72024;BME280;59889;50.700;5.440;2023-03-22T12:43:14;99235.45;;;21.30;35.03
72024;BME280;59889;50.700;5.440;2023-03-22T12:45:38;99240.86;;;21.38;34.93
72024;BME280;59889;50.700;5.440;2023-03-22T12:48:05;99234.62;;;21.30;35.01
72024;BME280;59889;50.700;5.440;2023-03-22T12:50:30;99241.75;;;21.54;35.00
72024;BME280;59889;50.700;5.440;2023-03-22T12:52:52;99235.72;;;21.42;35.18
72024;BME280;59889;50.700;5.440;2023-03-22T12:55:20;99239.53;;;21.59;34.93
72024;BME280;59889;50.700;5.440;2023-03-22T12:57:40;99240.42;;;21.59;34.90
72024;BME280;59889;50.700;5.440;2023-03-22T13:00:13;99238.83;;;21.43;35.08